Time;durP1;ratioP1;P1;durP2;ratioP2;P2;SDS_P1;SDS_P2;PMS_P1;PMS_P2;Temp;Humidity;BMP_temperature;BMP_pressure;BME280_temperature;BME280_humidity;BME280_pressure;Samples;Min_cycle;Max_cycle;Signal;HPM_P1;HPM_P2
2022/06/17 00:01:24;;;;;;;3.30;3.00;;;19.30;70.00;;;;;;5032478;28;20030;-82
2022/06/17 00:03:51;;;;;;;3.40;2.55;;;19.20;69.80;;;;;;5010366;28;20405;-82
2022/06/17 00:06:19;;;;;;;4.10;2.80;;;19.20;70.00;;;;;;5021509;28;20029;-81
2022/06/17 00:08:49;;;;;;;4.43;2.70;;;19.10;69.70;;;;;;5028058;28;20453;-82
2022/06/17 00:11:30;;;;;;;3.15;2.80;;;19.10;69.20;;;;;;5032068;28;20022;-82
2022/06/17 00:13:55;;;;;;;3.60;2.90;;;19.10;68.80;;;;;;5002384;28;20379;-83
2022/06/17 00:16:23;;;;;;;4.15;2.80;;;19.10;68.70;;;;;;5023403;28;20030;-82
2022/06/17 00:18:49;;;;;;;2.47;2.38;;;19.10;68.60;;;;;;5022688;28;20355;-83
2022/06/17 00:21:23;;;;;;;2.50;2.30;;;19.10;68.10;;;;;;5003006;28;20510;-83
2022/06/17 00:23:49;;;;;;;3.97;2.95;;;19.10;67.60;;;;;;5005188;28;20049;-83
2022/06/17 00:26:15;;;;;;;3.10;2.67;;;19.00;67.20;;;;;;5021904;28;20087;-82
2022/06/17 00:28:41;;;;;;;2.50;2.30;;;19.00;67.30;;;;;;5021282;28;20045;-82
2022/06/17 00:31:07;;;;;;;2.65;2.45;;;19.00;67.00;;;;;;5039147;28;20034;-83
2022/06/17 00:33:33;;;;;;;3.05;2.50;;;19.00;66.80;;;;;;5037710;28;20033;-82
2022/06/17 00:36:02;;;;;;;2.03;1.92;;;19.00;66.50;;;;;;5024681;28;20033;-83
2022/06/17 00:38:33;;;;;;;3.45;2.47;;;18.90;66.30;;;;;;5018271;28;20172;-83
2022/06/17 00:41:12;;;;;;;3.22;2.20;;;19.00;66.00;;;;;;5018485;28;20171;-83
2022/06/17 00:43:39;;;;;;;1.85;1.75;;;19.00;66.40;;;;;;5018396;28;20033;-83
2022/06/17 00:46:35;;;;;;;1.88;1.77;;;19.00;67.10;;;;;;5016906;28;20115;-83
2022/06/17 00:49:07;;;;;;;2.30;2.10;;;18.90;67.50;;;;;;4998806;28;20029;-83
2022/06/17 00:51:41;;;;;;;2.05;1.92;;;18.90;67.90;;;;;;5018613;28;20033;-83
2022/06/17 00:54:21;;;;;;;2.28;2.03;;;18.90;68.70;;;;;;5021007;28;20115;-82
2022/06/17 00:56:47;;;;;;;2.15;1.95;;;18.80;69.60;;;;;;5016824;28;20074;-82
2022/06/17 00:59:13;;;;;;;2.40;2.20;;;18.70;70.40;;;;;;4999185;28;20527;-82
2022/06/17 01:02:00;;;;;;;2.97;1.80;;;18.60;70.90;;;;;;4999875;28;20030;-82
2022/06/17 01:04:31;;;;;;;2.55;2.35;;;18.60;71.50;;;;;;5016902;28;20045;-82
2022/06/17 01:07:13;;;;;;;2.10;1.90;;;18.60;71.50;;;;;;5018027;28;20057;-82
2022/06/17 01:10:08;;;;;;;2.10;2.00;;;18.60;71.40;;;;;;5018236;28;20104;-82
2022/06/17 01:12:37;;;;;;;2.03;1.83;;;18.50;71.40;;;;;;5001180;28;20045;-82
2022/06/17 01:15:05;;;;;;;2.85;2.40;;;18.50;71.60;;;;;;5019426;28;20396;-81
2022/06/17 01:17:32;;;;;;;2.50;2.30;;;18.50;71.80;;;;;;4999028;28;20414;-82
2022/06/17 01:20:00;;;;;;;4.32;2.60;;;18.50;70.50;;;;;;4999328;28;20487;-82
2022/06/17 01:22:26;;;;;;;3.28;2.47;;;18.50;69.20;;;;;;5000975;28;20129;-82
2022/06/17 01:25:21;;;;;;;3.55;2.92;;;18.50;68.90;;;;;;5019289;28;20140;-82
2022/06/17 01:27:50;;;;;;;8.07;3.25;;;18.50;68.00;;;;;;4979755;28;20057;-81
2022/06/17 01:30:28;;;;;;;5.45;3.25;;;18.50;67.40;;;;;;4997668;28;20095;-81
2022/06/17 01:32:58;;;;;;;10.00;3.53;;;18.50;66.30;;;;;;4997174;28;20018;-82
2022/06/17 01:35:28;;;;;;;5.60;3.05;;;18.60;65.80;;;;;;4980920;28;20022;-82
2022/06/17 01:37:55;;;;;;;12.15;3.35;;;18.60;65.40;;;;;;5017816;28;20029;-82
2022/06/17 01:40:21;;;;;;;6.10;3.25;;;18.60;65.00;;;;;;5016913;28;20056;-82
2022/06/17 01:42:48;;;;;;;3.80;2.58;;;18.60;65.10;;;;;;5017104;28;20034;-82
2022/06/17 01:45:15;;;;;;;3.10;2.80;;;18.60;64.80;;;;;;5003462;28;20073;-82
2022/06/17 01:47:44;;;;;;;4.75;2.70;;;18.50;65.00;;;;;;5000003;28;20026;-82
2022/06/17 01:50:15;;;;;;;4.72;2.80;;;18.50;65.10;;;;;;5000036;28;20018;-82
2022/06/17 01:52:44;;;;;;;6.82;2.72;;;18.50;65.30;;;;;;5028339;28;20044;-82
2022/06/17 01:55:18;;;;;;;3.55;2.47;;;18.40;65.50;;;;;;5029098;28;20066;-82
2022/06/17 01:58:01;;;;;;;8.48;2.85;;;18.40;65.70;;;;;;5017878;28;20084;-82
2022/06/17 02:00:29;;;;;;;4.22;2.72;;;18.30;65.90;;;;;;5017791;28;20030;-82
2022/06/17 02:03:10;;;;;;;4.10;2.60;;;18.30;66.20;;;;;;5020561;28;20018;-82
2022/06/17 02:05:38;;;;;;;3.67;2.80;;;18.20;66.40;;;;;;5008527;28;20072;-81
2022/06/17 02:08:05;;;;;;;3.50;3.20;;;18.20;66.70;;;;;;5016063;28;20045;-81
2022/06/17 02:10:39;;;;;;;12.50;4.07;;;18.10;67.00;;;;;;5017293;28;20185;-82
2022/06/17 02:13:07;;;;;;;4.07;2.88;;;18.00;67.30;;;;;;5017079;28;20022;-81
2022/06/17 02:15:35;;;;;;;5.80;2.83;;;17.90;67.60;;;;;;5015178;28;20064;-81
2022/06/17 02:18:03;;;;;;;5.38;2.67;;;17.90;67.80;;;;;;4996326;28;20026;-81
2022/06/17 02:20:29;;;;;;;3.20;2.50;;;17.80;68.00;;;;;;5015619;28;20022;-82
2022/06/17 02:22:56;;;;;;;4.07;2.58;;;17.70;68.10;;;;;;5021801;28;20033;-81
2022/06/17 02:25:34;;;;;;;2.30;2.10;;;17.70;68.40;;;;;;5032576;28;20030;-82
2022/06/17 02:28:01;;;;;;;3.88;2.30;;;17.60;68.70;;;;;;4997496;28;20033;-80
2022/06/17 02:30:28;;;;;;;4.78;2.38;;;17.60;68.80;;;;;;5027186;28;20030;-81
2022/06/17 02:32:59;;;;;;;2.50;2.30;;;17.60;68.90;;;;;;5004709;28;20022;-82
2022/06/17 02:35:50;;;;;;;3.42;2.42;;;17.50;69.00;;;;;;4999298;28;20076;-81
2022/06/17 02:38:19;;;;;;;3.60;2.30;;;17.50;69.00;;;;;;5015293;28;20026;-82
2022/06/17 02:40:49;;;;;;;2.47;2.28;;;17.50;68.90;;;;;;5015821;28;20034;-82
2022/06/17 02:43:19;;;;;;;2.40;2.10;;;17.50;68.70;;;;;;5017540;28;20481;-83
2022/06/17 02:45:53;;;;;;;2.97;2.10;;;17.50;68.80;;;;;;5019864;28;20184;-82
2022/06/17 02:48:21;;;;;;;2.35;2.15;;;17.50;68.70;;;;;;5014481;28;20030;-82
2022/06/17 02:50:47;;;;;;;3.30;2.20;;;17.50;68.50;;;;;;5018897;28;20022;-82
2022/06/17 02:53:14;;;;;;;1.73;1.63;;;17.40;68.50;;;;;;5016811;28;20045;-82
2022/06/17 02:55:42;;;;;;;1.73;1.63;;;17.50;68.50;;;;;;5019098;28;20066;-81
2022/06/17 02:58:16;;;;;;;2.35;1.80;;;17.50;68.50;;;;;;5031416;28;20094;-81
2022/06/17 03:00:43;;;;;;;2.92;2.30;;;17.50;68.40;;;;;;5033347;28;20100;-82
2022/06/17 03:03:12;;;;;;;2.88;2.20;;;17.40;67.90;;;;;;5036868;28;20030;-82
2022/06/17 03:05:42;;;;;;;2.40;2.20;;;17.50;67.70;;;;;;5028577;28;20045;-81
2022/06/17 03:08:22;;;;;;;2.55;2.20;;;17.40;67.70;;;;;;5024583;28;20478;-82
2022/06/17 03:10:50;;;;;;;2.50;2.30;;;17.40;67.60;;;;;;5023344;28;20030;-81
2022/06/17 03:13:30;;;;;;;2.20;2.00;;;17.50;67.70;;;;;;5023172;28;20041;-82
2022/06/17 03:16:02;;;;;;;2.05;1.80;;;17.50;69.30;;;;;;5005308;28;20183;-82
2022/06/17 03:18:31;;;;;;;3.58;2.13;;;17.50;70.40;;;;;;5022803;28;20025;-82
2022/06/17 03:21:00;;;;;;;2.47;2.28;;;17.40;70.60;;;;;;5040453;28;20446;-82
2022/06/17 03:23:33;;;;;;;2.95;2.42;;;17.40;71.10;;;;;;5040926;28;20056;-82
2022/06/17 03:26:04;;;;;;;3.20;2.90;;;17.40;70.80;;;;;;5022548;28;20029;-82
2022/06/17 03:28:41;;;;;;;2.17;2.07;;;17.30;70.60;;;;;;5026650;28;20053;-82
2022/06/17 03:31:11;;;;;;;1.90;1.80;;;17.30;70.80;;;;;;5019385;28;20053;-82
2022/06/17 03:33:54;;;;;;;1.90;1.80;;;17.40;70.80;;;;;;5020046;28;20064;-81
2022/06/17 03:36:37;;;;;;;3.05;1.83;;;17.40;70.70;;;;;;5033284;28;20026;-81
2022/06/17 03:39:12;;;;;;;1.55;1.45;;;17.30;70.80;;;;;;5027550;28;20033;-82
2022/06/17 03:41:50;;;;;;;2.30;2.10;;;17.30;70.70;;;;;;5022663;28;20070;-82
2022/06/17 03:44:22;;;;;;;2.47;2.05;;;17.30;70.60;;;;;;5030242;28;20033;-81
2022/06/17 03:47:04;;;;;;;2.30;2.00;;;17.30;70.50;;;;;;5029847;28;20018;-81
2022/06/17 03:49:50;;;;;;;4.22;2.45;;;17.40;70.40;;;;;;5021593;28;20026;-81
2022/06/17 03:52:32;;;;;;;2.47;2.15;;;17.30;70.30;;;;;;5021270;28;20043;-81
2022/06/17 03:54:58;;;;;;;;;;;17.30;70.40;;;;;;5040999;28;20056;-82
2022/06/17 03:57:27;;;;;;;1.85;1.75;;;17.40;70.50;;;;;;5040076;28;20358;-81
2022/06/17 03:59:53;;;;;;;4.45;2.40;;;17.40;70.50;;;;;;5025540;28;20025;-82
2022/06/17 04:02:21;;;;;;;3.40;2.40;;;17.40;70.20;;;;;;5037382;28;20029;-82
2022/06/17 04:04:53;;;;;;;2.55;2.25;;;17.40;69.20;;;;;;5037675;28;20018;-81
2022/06/17 04:07:19;;;;;;;3.25;2.45;;;17.40;69.10;;;;;;5038022;28;20094;-82
2022/06/17 04:09:47;;;;;;;6.30;2.65;;;17.40;68.80;;;;;;5036748;28;20056;-81
2022/06/17 04:12:12;;;;;;;3.15;2.10;;;17.40;68.70;;;;;;5037061;28;20121;-82
2022/06/17 04:14:58;;;;;;;3.63;2.47;;;17.40;68.80;;;;;;5036725;28;20033;-82
2022/06/17 04:17:40;;;;;;;3.28;2.65;;;17.40;69.00;;;;;;5033833;28;20285;-81
2022/06/17 04:20:39;;;;;;;3.25;2.60;;;17.40;68.70;;;;;;5033971;28;20018;-81
2022/06/17 04:23:13;;;;;;;3.33;2.50;;;17.50;68.50;;;;;;5016142;28;20030;-81
2022/06/17 04:26:10;;;;;;;6.93;2.60;;;17.50;68.10;;;;;;5033166;28;20030;-82
2022/06/17 04:28:48;;;;;;;4.45;2.85;;;17.50;68.10;;;;;;5033461;28;20465;-82
2022/06/17 04:31:20;;;;;;;2.97;2.10;;;17.50;68.00;;;;;;5018071;28;20061;-82
2022/06/17 04:34:13;;;;;;;4.95;3.35;;;17.50;67.80;;;;;;5019635;28;20018;-83
2022/06/17 04:37:00;;;;;;;3.40;2.65;;;17.60;67.80;;;;;;5001587;28;20482;-82
2022/06/17 04:39:46;;;;;;;2.60;2.40;;;17.60;67.90;;;;;;5019780;28;20026;-82
2022/06/17 04:42:18;;;;;;;6.05;3.00;;;17.60;67.70;;;;;;4998828;28;20056;-82
2022/06/17 04:44:44;;;;;;;5.10;2.58;;;17.60;67.10;;;;;;4998580;28;20442;-82
2022/06/17 04:47:16;;;;;;;3.15;2.38;;;17.70;66.70;;;;;;5000857;28;20036;-83
2022/06/17 04:49:48;;;;;;;2.30;2.15;;;17.80;66.80;;;;;;5023709;28;20085;-82
2022/06/17 04:52:27;;;;;;;2.10;1.90;;;17.90;66.60;;;;;;5011412;28;20093;-83
2022/06/17 04:54:56;;;;;;;6.97;2.65;;;18.00;66.20;;;;;;5021756;28;20033;-82
2022/06/17 04:57:22;;;;;;;4.43;2.40;;;18.10;65.60;;;;;;5020749;28;20026;-83
2022/06/17 04:59:48;;;;;;;4.95;2.65;;;18.10;65.20;;;;;;5019914;28;20050;-82
2022/06/17 05:02:18;;;;;;;3.35;2.40;;;18.20;65.10;;;;;;5001609;28;20105;-82
2022/06/17 05:04:46;;;;;;;4.72;2.47;;;18.20;65.10;;;;;;5018815;28;20085;-82
2022/06/17 05:07:15;;;;;;;3.50;2.58;;;18.40;65.10;;;;;;5000641;28;20022;-82
2022/06/17 05:09:57;;;;;;;5.05;3.08;;;19.90;62.90;;;;;;5018130;28;20466;-82
2022/06/17 05:12:33;;;;;;;4.45;2.35;;;22.80;56.20;;;;;;5018104;28;20045;-82
2022/06/17 05:15:12;;;;;;;4.30;3.03;;;25.60;51.70;;;;;;5000538;28;20141;-82
2022/06/17 05:17:38;;;;;;;5.35;2.35;;;28.00;46.10;;;;;;5000633;28;20029;-82
2022/06/17 05:20:06;;;;;;;3.10;2.15;;;28.60;44.50;;;;;;5020245;28;20057;-82
2022/06/17 05:22:31;;;;;;;2.53;2.33;;;28.60;44.50;;;;;;5049211;22;20023;-78
2022/06/17 05:24:59;;;;;;;4.05;2.63;;;29.60;44.00;;;;;;5023201;28;20049;-79
2022/06/17 05:27:24;;;;;;;5.32;2.78;;;31.00;41.30;;;;;;5005801;28;20026;-83
2022/06/17 05:29:50;;;;;;;2.70;2.20;;;31.90;40.30;;;;;;5009648;28;20109;-80
2022/06/17 05:32:19;;;;;;;2.17;1.98;;;32.70;40.20;;;;;;5024262;28;20052;-82
2022/06/17 05:34:46;;;;;;;2.45;2.25;;;32.90;38.70;;;;;;5022004;28;20040;-82
2022/06/17 05:37:12;;;;;;;3.05;2.72;;;32.70;38.60;;;;;;5023444;28;20041;-82
2022/06/17 05:39:38;;;;;;;2.28;2.05;;;33.00;37.90;;;;;;5035411;28;20020;-77
2022/06/17 05:42:05;;;;;;;2.10;1.95;;;33.00;38.20;;;;;;5028696;28;20034;-83
2022/06/17 05:44:31;;;;;;;3.75;2.45;;;33.60;38.20;;;;;;5023446;28;20032;-79
2022/06/17 05:46:57;;;;;;;2.55;2.33;;;34.00;36.50;;;;;;5006235;28;20048;-83
2022/06/17 05:49:23;;;;;;;2.30;2.10;;;34.00;36.70;;;;;;5023683;28;20022;-83
2022/06/17 05:51:49;;;;;;;2.25;2.08;;;33.90;37.00;;;;;;5005357;28;20058;-83
2022/06/17 05:54:14;;;;;;;1.85;1.75;;;34.30;36.60;;;;;;5020755;28;20014;-82
2022/06/17 05:56:40;;;;;;;2.10;2.00;;;34.10;36.00;;;;;;5043813;28;20017;-84
2022/06/17 05:59:06;;;;;;;3.30;2.00;;;33.40;36.10;;;;;;5025950;28;20010;-83
2022/06/17 06:01:31;;;;;;;2.45;1.90;;;32.50;36.90;;;;;;5033958;28;20089;-83
2022/06/17 06:03:57;;;;;;;2.20;2.10;;;31.80;37.60;;;;;;5005344;28;20092;-82
2022/06/17 06:06:23;;;;;;;3.45;2.55;;;31.90;38.50;;;;;;5024072;28;20029;-81
2022/06/17 06:08:48;;;;;;;3.78;2.40;;;32.00;38.60;;;;;;5007032;28;20056;-82
2022/06/17 06:11:14;;;;;;;3.42;2.47;;;31.80;38.20;;;;;;5023937;28;20022;-83
2022/06/17 06:13:40;;;;;;;3.65;2.05;;;31.30;37.80;;;;;;5024513;28;20018;-83
2022/06/17 06:16:08;;;;;;;2.70;2.17;;;30.90;38.90;;;;;;5025586;28;20073;-84
2022/06/17 06:18:45;;;;;;;4.65;2.00;;;31.20;38.90;;;;;;5006127;28;20026;-84
2022/06/17 06:21:11;;;;;;;3.85;2.08;;;31.20;38.70;;;;;;5009262;28;20045;-82
2022/06/17 06:23:38;;;;;;;2.30;2.00;;;31.20;39.00;;;;;;5042157;28;20030;-84
2022/06/17 06:26:07;;;;;;;4.78;2.03;;;31.40;38.60;;;;;;5052296;28;20075;-80
2022/06/17 06:28:34;;;;;;;2.17;2.05;;;31.90;38.60;;;;;;5036708;28;20056;-79
2022/06/17 06:31:30;;;;;;;1.67;1.58;;;32.10;38.00;;;;;;5052374;28;20124;-83
2022/06/17 06:33:56;;;;;;;1.80;1.65;;;32.40;37.90;;;;;;5004483;28;20022;-83
2022/06/17 06:36:22;;;;;;;1.80;1.60;;;32.70;37.50;;;;;;5006326;28;20545;-83
2022/06/17 06:38:48;;;;;;;4.78;2.20;;;33.00;37.10;;;;;;5009090;28;20034;-82
2022/06/17 06:41:14;;;;;;;2.28;2.08;;;32.70;36.90;;;;;;5009472;28;20362;-81
2022/06/17 06:43:40;;;;;;;4.47;2.80;;;31.90;37.80;;;;;;5024326;28;20159;-82
2022/06/17 06:46:14;;;;;;;3.80;2.53;;;31.30;37.90;;;;;;5029068;28;20014;-82
2022/06/17 06:48:40;;;;;;;3.05;2.20;;;30.50;39.00;;;;;;5030589;28;20045;-83
2022/06/17 06:51:06;;;;;;;2.22;2.00;;;30.70;40.20;;;;;;5011812;28;20052;-83
2022/06/17 06:53:32;;;;;;;2.50;2.30;;;31.20;39.70;;;;;;5030776;28;20030;-83
2022/06/17 06:55:58;;;;;;;3.92;3.53;;;31.70;38.80;;;;;;5030918;28;20025;-81
2022/06/17 06:58:25;;;;;;;3.67;2.50;;;32.10;38.10;;;;;;5047655;28;20037;-83
2022/06/17 07:00:54;;;;;;;3.58;2.40;;;32.60;38.20;;;;;;5048390;28;20053;-82
2022/06/17 07:03:20;;;;;;;4.60;2.63;;;32.70;38.00;;;;;;5040018;28;20054;-79
2022/06/17 07:06:00;;;;;;;4.38;2.42;;;32.80;37.00;;;;;;5039241;28;20029;-81
2022/06/17 07:08:29;;;;;;;5.10;3.10;;;32.20;37.60;;;;;;5020964;28;20022;-77
2022/06/17 07:10:59;;;;;;;5.22;2.75;;;31.70;38.10;;;;;;5021272;28;20057;-77
2022/06/17 07:13:26;;;;;;;4.63;2.47;;;32.20;38.90;;;;;;5021830;28;20018;-79
2022/06/17 07:15:55;;;;;;;5.43;2.75;;;32.60;38.00;;;;;;5039206;28;20014;-79
2022/06/17 07:18:27;;;;;;;2.90;1.83;;;32.70;38.10;;;;;;5039015;28;20022;-79
2022/06/17 07:20:55;;;;;;;3.85;2.00;;;32.70;37.50;;;;;;5021225;28;20110;-78
2022/06/17 07:23:32;;;;;;;3.88;2.63;;;31.90;37.40;;;;;;5043613;28;20048;-78
2022/06/17 07:25:59;;;;;;;5.78;3.10;;;30.20;39.00;;;;;;5058582;28;20021;-79
2022/06/17 07:28:28;;;;;;;12.40;3.75;;;28.20;41.20;;;;;;5057576;28;20029;-78
2022/06/17 07:30:55;;;;;;;4.55;2.75;;;26.60;43.60;;;;;;5059127;28;20036;-79
2022/06/17 07:33:22;;;;;;;3.20;2.78;;;25.50;45.60;;;;;;5059077;28;20028;-78
2022/06/17 07:35:53;;;;;;;3.72;2.90;;;24.70;47.90;;;;;;5039272;28;20044;-78
2022/06/17 07:41:07;;;;;;;6.15;2.97;;;23.80;49.10;;;;;;5038978;28;20017;-79
2022/06/17 07:43:33;;;;;;;3.85;2.97;;;23.60;50.20;;;;;;5019442;28;20521;-81
2022/06/17 07:46:01;;;;;;;2.50;2.30;;;23.60;50.50;;;;;;5018539;28;20022;-83
2022/06/17 07:48:27;;;;;;;3.50;2.78;;;23.60;50.90;;;;;;5018354;28;20033;-79
2022/06/17 07:50:53;;;;;;;3.63;2.65;;;23.70;50.70;;;;;;5035413;28;20053;-82
2022/06/17 07:53:19;;;;;;;5.57;2.33;;;23.80;50.20;;;;;;5023824;28;20041;-82
2022/06/17 07:55:45;;;;;;;5.38;2.10;;;23.80;50.00;;;;;;5043892;28;20245;-80
2022/06/17 07:58:12;;;;;;;4.85;2.30;;;23.80;50.20;;;;;;5035243;28;20030;-78
2022/06/17 08:00:44;;;;;;;5.28;3.03;;;23.80;50.10;;;;;;5019052;28;20022;-81
2022/06/17 08:03:11;;;;;;;5.53;2.97;;;23.80;50.00;;;;;;5013828;28;20103;-78
2022/06/17 08:05:41;;;;;;;5.88;2.30;;;23.70;50.70;;;;;;5030727;28;20120;-84
2022/06/17 08:08:08;;;;;;;6.43;3.20;;;23.60;50.90;;;;;;5029684;28;20447;-82
2022/06/17 08:10:35;;;;;;;5.53;2.33;;;23.60;51.10;;;;;;5022555;28;20025;-79
2022/06/17 08:13:05;;;;;;;5.40;2.72;;;23.60;51.40;;;;;;5033757;28;20036;-80
2022/06/17 08:15:33;;;;;;;5.40;2.70;;;23.80;50.50;;;;;;5028443;28;20025;-80
2022/06/17 08:18:00;;;;;;;4.30;2.58;;;23.90;50.70;;;;;;5028263;28;20030;-82
2022/06/17 08:20:35;;;;;;;5.07;2.63;;;24.00;50.50;;;;;;5009129;28;20033;-83
2022/06/17 08:23:03;;;;;;;4.03;2.15;;;24.00;50.40;;;;;;5034255;28;20029;-82
2022/06/17 08:25:30;;;;;;;4.47;2.45;;;24.10;50.50;;;;;;5042347;28;20017;-82
2022/06/17 08:27:57;;;;;;;3.70;2.40;;;24.20;49.70;;;;;;5024573;28;20041;-82
2022/06/17 08:30:26;;;;;;;5.47;2.30;;;24.40;49.60;;;;;;5026048;28;20528;-82
2022/06/17 08:32:53;;;;;;;4.90;2.55;;;24.50;49.20;;;;;;5007555;28;20068;-81
2022/06/17 08:35:29;;;;;;;7.40;3.20;;;24.60;49.40;;;;;;5026038;28;20386;-83
2022/06/17 08:38:01;;;;;;;6.88;3.08;;;24.60;48.60;;;;;;5024856;28;20037;-82
2022/06/17 08:40:45;;;;;;;3.00;2.38;;;24.50;49.00;;;;;;5025749;28;20038;-80
2022/06/17 08:43:25;;;;;;;5.82;2.78;;;24.50;49.60;;;;;;5006915;28;20513;-81
2022/06/17 08:46:11;;;;;;;4.10;2.75;;;24.50;49.20;;;;;;5026006;28;20025;-83
2022/06/17 08:48:51;;;;;;;7.50;2.80;;;24.60;49.50;;;;;;5026132;28;20040;-83
2022/06/17 08:51:43;;;;;;;6.00;3.10;;;24.60;48.30;;;;;;5025794;28;20032;-82
2022/06/17 08:54:20;;;;;;;6.50;2.45;;;24.40;50.00;;;;;;5034224;28;20363;-79
2022/06/17 08:57:04;;;;;;;7.97;2.83;;;24.40;50.60;;;;;;5025004;28;20029;-83
2022/06/17 08:59:51;;;;;;;3.97;2.45;;;24.40;49.90;;;;;;5024920;28;20033;-82
2022/06/17 09:02:35;;;;;;;3.75;2.20;;;24.40;48.80;;;;;;5026853;28;20036;-83
2022/06/17 09:05:24;;;;;;;5.28;3.22;;;24.30;49.10;;;;;;5026323;28;20026;-82
2022/06/17 09:08:28;;;;;;;3.67;2.92;;;24.40;48.80;;;;;;5026224;28;20022;-82
2022/06/17 09:11:20;;;;;;;7.00;2.58;;;24.50;48.90;;;;;;5010904;28;20026;-80
2022/06/17 09:14:05;;;;;;;3.35;2.08;;;24.70;48.20;;;;;;5025241;28;20022;-82
2022/06/17 09:16:52;;;;;;;3.03;2.17;;;24.80;47.40;;;;;;5017086;28;20022;-79
2022/06/17 09:19:23;;;;;;;5.72;2.50;;;24.80;45.80;;;;;;5033083;28;20017;-83
2022/06/17 09:21:54;;;;;;;3.30;2.28;;;24.80;46.20;;;;;;5025118;28;20041;-82
2022/06/17 09:24:27;;;;;;;6.70;2.70;;;24.80;46.90;;;;;;5023174;28;20089;-82
2022/06/17 09:27:26;;;;;;;8.75;2.33;;;24.80;47.20;;;;;;5018457;28;20026;-82
2022/06/17 09:29:58;;;;;;;4.70;2.15;;;24.80;46.90;;;;;;5023976;28;20111;-83
2022/06/17 09:32:36;;;;;;;4.53;2.10;;;24.80;47.70;;;;;;5024422;28;20022;-83
2022/06/17 09:35:10;;;;;;;3.42;1.77;;;24.80;47.00;;;;;;5027785;28;20485;-78
2022/06/17 09:37:57;;;;;;;5.35;2.50;;;24.80;45.70;;;;;;5030696;28;20188;-84
2022/06/17 09:40:46;;;;;;;2.80;1.80;;;24.80;46.10;;;;;;5036883;28;20022;-78
2022/06/17 09:43:22;;;;;;;3.88;2.30;;;24.80;46.00;;;;;;5027558;28;20034;-79
2022/06/17 09:45:58;;;;;;;1.88;1.77;;;24.70;46.60;;;;;;5023327;28;20022;-82
2022/06/17 09:48:42;;;;;;;3.25;2.10;;;24.60;47.40;;;;;;5023560;28;20018;-83
2022/06/17 09:51:19;;;;;;;4.10;2.25;;;24.50;47.80;;;;;;5024632;28;20033;-83
2022/06/17 09:53:54;;;;;;;5.63;2.42;;;24.60;48.30;;;;;;5037063;28;20048;-83
2022/06/17 09:56:35;;;;;;;5.50;2.13;;;24.70;47.00;;;;;;5042573;28;20086;-83
2022/06/17 09:59:16;;;;;;;5.63;2.30;;;24.90;47.30;;;;;;5004390;28;20415;-84
2022/06/17 10:01:44;;;;;;;6.10;1.90;;;25.00;46.70;;;;;;5022753;28;20073;-83
2022/06/17 10:04:11;;;;;;;4.30;2.58;;;25.10;46.40;;;;;;5023737;28;20026;-83
2022/06/17 10:07:04;;;;;;;2.42;2.00;;;25.30;45.50;;;;;;5008857;28;20025;-82
2022/06/17 10:09:43;;;;;;;3.60;2.33;;;25.50;45.70;;;;;;5024984;28;20181;-80
2022/06/17 10:12:34;;;;;;;2.45;1.65;;;25.50;46.30;;;;;;5028671;28;20040;-83
2022/06/17 10:15:31;;;;;;;2.03;1.80;;;25.40;46.90;;;;;;5010221;28;20033;-84
2022/06/17 10:18:45;;;;;;;3.88;2.15;;;25.60;44.70;;;;;;5029476;28;20032;-83
2022/06/17 10:21:39;;;;;;;7.70;2.15;;;25.70;45.30;;;;;;4999084;28;20072;-83
2022/06/17 10:24:20;;;;;;;5.45;2.30;;;26.00;44.60;;;;;;5019455;28;20056;-82
2022/06/17 10:27:01;;;;;;;5.45;2.28;;;26.10;43.80;;;;;;5047323;28;20018;-84
2022/06/17 10:29:56;;;;;;;2.03;1.73;;;26.00;44.30;;;;;;5029181;28;20149;-80
2022/06/17 10:32:23;;;;;;;2.70;1.83;;;26.10;45.00;;;;;;5010070;28;20034;-83
2022/06/17 10:34:59;;;;;;;5.80;1.77;;;26.20;44.20;;;;;;5027984;28;20087;-83
2022/06/17 10:37:26;;;;;;;3.30;2.30;;;26.10;43.90;;;;;;5011343;28;20022;-83
2022/06/17 10:39:53;;;;;;;3.53;2.03;;;25.90;44.40;;;;;;5031167;28;20021;-83
2022/06/17 10:42:22;;;;;;;2.65;2.28;;;25.80;45.00;;;;;;5029924;28;20237;-80
2022/06/17 10:44:52;;;;;;;3.70;1.48;;;26.00;44.80;;;;;;5026419;28;20018;-84
2022/06/17 10:47:44;;;;;;;1.70;1.60;;;26.10;43.60;;;;;;5009092;28;20026;-83
2022/06/17 10:50:24;;;;;;;3.33;2.03;;;26.30;42.90;;;;;;5008501;28;20053;-83
2022/06/17 10:53:13;;;;;;;2.17;1.75;;;26.50;42.70;;;;;;5031557;28;20529;-84
2022/06/17 10:55:43;;;;;;;2.92;1.83;;;26.60;42.70;;;;;;5028603;28;20025;-84
2022/06/17 10:58:27;;;;;;;2.58;1.90;;;26.50;42.10;;;;;;5046754;28;20033;-84
2022/06/17 11:00:58;;;;;;;2.30;1.70;;;26.40;42.80;;;;;;5024583;28;20037;-84
2022/06/17 11:03:35;;;;;;;1.38;1.25;;;26.50;41.70;;;;;;5026609;28;20049;-84
2022/06/17 11:06:04;;;;;;;3.05;1.70;;;26.30;41.80;;;;;;5008442;28;20018;-84
2022/06/17 11:08:37;;;;;;;1.40;1.30;;;26.40;40.60;;;;;;5026229;28;20036;-84
2022/06/17 11:13:51;;;;;;;6.75;1.80;;;26.60;41.40;;;;;;5025807;28;20398;-82
2022/06/17 11:16:20;;;;;;;3.92;1.70;;;26.80;41.00;;;;;;5028511;28;20030;-84
2022/06/17 11:18:59;;;;;;;2.25;1.40;;;27.00;40.10;;;;;;5026336;28;20033;-84
2022/06/17 11:21:34;;;;;;;2.95;1.60;;;27.10;40.10;;;;;;5024891;28;20056;-80
2022/06/17 11:24:02;;;;;;;1.30;1.20;;;27.10;40.30;;;;;;5032364;28;20032;-77
2022/06/17 11:26:30;;;;;;;2.08;1.30;;;27.20;40.30;;;;;;5039792;28;20389;-79
2022/06/17 11:29:20;;;;;;;2.38;1.48;;;27.50;40.00;;;;;;5038852;28;20022;-80
2022/06/17 11:31:49;;;;;;;2.30;1.35;;;27.60;39.50;;;;;;5001232;28;20367;-79
2022/06/17 11:34:25;;;;;;;3.17;1.40;;;27.70;39.20;;;;;;5019626;28;20024;-78
2022/06/17 11:36:58;;;;;;;3.28;1.50;;;27.70;39.10;;;;;;5019980;28;20101;-80
2022/06/17 11:39:37;;;;;;;5.03;1.40;;;27.60;39.10;;;;;;5037787;28;20042;-83
2022/06/17 11:42:13;;;;;;;1.90;1.50;;;27.40;39.10;;;;;;5006235;28;20026;-79
2022/06/17 11:44:48;;;;;;;3.00;1.50;;;27.30;38.80;;;;;;5021391;28;20018;-80
2022/06/17 11:47:19;;;;;;;1.75;1.63;;;27.30;38.60;;;;;;5020710;28;20037;-78
2022/06/17 11:49:45;;;;;;;;;;;27.50;39.80;;;;;;5003375;28;20029;-79
2022/06/17 11:52:32;;;;;;;2.75;1.63;;;27.50;39.90;;;;;;5021323;28;20020;-79
2022/06/17 11:54:58;;;;;;;2.45;1.67;;;27.30;39.40;;;;;;4993273;28;20032;-76
2022/06/17 11:57:29;;;;;;;1.33;1.20;;;27.20;39.10;;;;;;5038542;28;20026;-79
2022/06/17 11:59:58;;;;;;;3.20;1.53;;;27.20;39.10;;;;;;5038863;28;20015;-80
2022/06/17 12:02:26;;;;;;;2.10;1.60;;;27.50;39.00;;;;;;5024842;28;20037;-77
2022/06/17 12:04:54;;;;;;;1.30;1.20;;;27.80;39.20;;;;;;5025097;28;20053;-80
2022/06/17 12:07:46;;;;;;;1.85;1.55;;;28.10;39.20;;;;;;5024565;28;20030;-77
2022/06/17 12:10:48;;;;;;;2.10;1.70;;;28.40;38.60;;;;;;5022687;28;20053;-78
2022/06/17 12:13:37;;;;;;;4.50;2.00;;;28.40;39.10;;;;;;5000466;28;20023;-78
2022/06/17 12:16:09;;;;;;;5.18;1.80;;;28.20;39.40;;;;;;5000398;28;20475;-76
2022/06/17 12:18:43;;;;;;;2.97;1.65;;;28.00;39.90;;;;;;4982502;28;20023;-80
2022/06/17 12:22:00;;;;;;;2.35;1.33;;;28.00;39.00;;;;;;4983213;28;20069;-80
2022/06/17 12:24:51;;;;;;;4.00;1.27;;;27.90;38.50;;;;;;4941179;29;20487;-80
2022/06/17 12:27:43;;;;;;;4.77;1.50;;;27.90;38.90;;;;;;5036464;28;20057;-80
2022/06/17 12:30:20;;;;;;;1.17;1.17;;;27.80;37.90;;;;;;5039278;28;20021;-79
2022/06/17 12:32:46;;;;;;;2.20;1.25;;;27.70;37.00;;;;;;5041677;28;20032;-78
2022/06/17 12:35:49;;;;;;;1.95;1.35;;;27.90;36.90;;;;;;5022058;28;20093;-81
2022/06/17 12:38:31;;;;;;;2.92;1.17;;;27.80;36.60;;;;;;4993185;28;20036;-79
2022/06/17 12:41:26;;;;;;;2.10;1.27;;;27.70;36.70;;;;;;5041768;28;20040;-78
2022/06/17 12:44:17;;;;;;;2.15;1.52;;;27.80;37.00;;;;;;5013433;28;20038;-80
2022/06/17 12:46:52;;;;;;;1.17;0.88;;;28.00;36.80;;;;;;5021248;28;20022;-78
2022/06/17 12:55:56;;;;;;;1.63;1.50;;;28.50;36.40;;;;;;5021677;28;20028;-79
2022/06/17 12:58:46;;;;;;;2.08;0.90;;;28.80;36.30;;;;;;5037937;28;20432;-80
2022/06/17 13:01:32;;;;;;;1.10;1.00;;;28.80;36.50;;;;;;5038397;28;20026;-79
2022/06/17 13:04:08;;;;;;;1.77;0.90;;;28.80;36.30;;;;;;5026130;28;20033;-81
2022/06/17 13:06:55;;;;;;;2.83;1.33;;;28.70;36.40;;;;;;5018945;28;20033;-80
2022/06/17 13:09:55;;;;;;;1.58;1.23;;;28.70;37.00;;;;;;5021652;28;20030;-79
2022/06/17 13:12:31;;;;;;;1.20;1.20;;;28.90;37.00;;;;;;5011538;28;20212;-78
2022/06/17 13:15:28;;;;;;;4.20;1.40;;;29.10;36.90;;;;;;5022993;28;20017;-79
2022/06/17 13:18:17;;;;;;;1.92;1.30;;;29.20;37.70;;;;;;5021827;28;20018;-80
2022/06/17 13:21:07;;;;;;;3.72;1.38;;;29.20;37.60;;;;;;5022220;28;20026;-79
2022/06/17 13:23:52;;;;;;;2.20;1.70;;;29.20;36.90;;;;;;5012786;28;20038;-78
2022/06/17 13:26:37;;;;;;;1.95;1.30;;;29.00;37.40;;;;;;5050251;28;20056;-78
2022/06/17 13:29:16;;;;;;;2.03;1.00;;;28.80;36.70;;;;;;5049021;28;20026;-82
2022/06/17 13:31:48;;;;;;;2.15;1.40;;;28.80;35.70;;;;;;5056347;28;20102;-82
2022/06/17 13:34:22;;;;;;;1.35;1.25;;;28.80;36.90;;;;;;5049446;28;20304;-85
2022/06/17 13:36:58;;;;;;;1.60;1.20;;;28.90;37.00;;;;;;5037072;28;20011;-82